TimeEST,TemperatureF,Dew PointF,Humidity,Sea Level PressureIn,VisibilityMPH,Wind Direction,Wind SpeedMPH,Gust SpeedMPH,PrecipitationIn,Events,Conditions,WindDirDegrees,DateUTC
8:15 AM,32.0,26.6,80,29.92,1.2,North,8.1,-,N/A,,Overcast,360,2013-02-16 13:15:00
8:35 AM,30.2,28.4,93,29.91,1.2,North,9.2,-,N/A,,Overcast,350,2013-02-16 13:35:00
8:55 AM,30.2,26.6,86,29.91,1.8,North,9.2,-,N/A,,Overcast,360,2013-02-16 13:55:00
9:15 AM,30.2,26.6,86,29.90,1.5,North,8.1,-,N/A,,Overcast,10,2013-02-16 14:15:00
9:35 AM,32.0,28.4,87,29.90,5.0,North,9.2,-,N/A,,Overcast,10,2013-02-16 14:35:00
9:55 AM,32.0,26.6,80,29.89,10.0,North,9.2,-,N/A,,Overcast,360,2013-02-16 14:55:00
10:15 AM,32.0,28.4,87,29.89,10.0,North,9.2,-,N/A,,Overcast,10,2013-02-16 15:15:00
10:35 AM,33.8,26.6,75,29.90,10.0,North,9.2,-,N/A,,Overcast,10,2013-02-16 15:35:00
11:15 AM,33.8,26.6,75,29.89,10.0,North,8.1,-,0.01,,Overcast,350,2013-02-16 16:15:00
11:35 AM,33.8,26.6,75,29.88,1.5,NNE,10.4,-,0.01,,Overcast,20,2013-02-16 16:35:00
11:55 AM,33.8,26.6,75,29.87,3.0,NNE,9.2,-,0.01,,Scattered Clouds,20,2013-02-16 16:55:00
12:35 PM,33.8,28.4,81,29.86,10.0,North,6.9,-,N/A,,Mostly Cloudy,360,2013-02-16 17:35:00
12:55 PM,33.8,28.4,81,29.85,10.0,North,8.1,-,N/A,,Overcast,350,2013-02-16 17:55:00
1:15 PM,33.8,28.4,81,29.85,2.5,North,6.9,-,N/A,,Overcast,350,2013-02-16 18:15:00
1:35 PM,33.8,28.4,81,29.84,8.0,North,6.9,-,N/A,,Mostly Cloudy,350,2013-02-16 18:35:00
1:55 PM,33.8,28.4,81,29.84,7.0,North,8.1,-,N/A,,Mostly Cloudy,360,2013-02-16 18:55:00
2:15 PM,33.8,28.4,81,29.83,4.0,North,9.2,-,N/A,,Scattered Clouds,360,2013-02-16 19:15:00
2:55 PM,33.8,28.4,81,29.82,10.0,North,6.9,-,N/A,,Scattered Clouds,10,2013-02-16 19:55:00
3:15 PM,33.8,28.4,81,29.82,10.0,North,9.2,-,N/A,,Scattered Clouds,350,2013-02-16 20:15:00
3:35 PM,33.8,26.6,75,29.81,7.0,North,9.2,-,N/A,,Partly Cloudy,10,2013-02-16 20:35:00
3:55 PM,33.8,26.6,75,29.81,10.0,North,9.2,-,N/A,,Clear,10,2013-02-16 20:55:00
4:15 PM,33.8,28.4,81,29.80,7.0,North,8.1,-,N/A,,Clear,10,2013-02-16 21:15:00
4:35 PM,33.8,26.6,75,29.80,5.0,North,8.1,-,N/A,,Clear,10,2013-02-16 21:35:00
4:55 PM,33.8,26.6,75,29.79,9.0,NNE,5.8,-,N/A,,Clear,30,2013-02-16 21:55:00
5:35 PM,33.8,26.6,75,29.79,10.0,North,4.6,-,N/A,,Clear,360,2013-02-16 22:35:00
5:55 PM,33.8,24.8,70,29.80,10.0,North,3.5,-,N/A,,Scattered Clouds,350,2013-02-16 22:55:00
6:15 PM,33.8,26.6,75,29.80,8.0,North,5.8,-,N/A,,Overcast,360,2013-02-16 23:15:00
6:35 PM,33.8,24.8,70,29.80,4.0,North,6.9,-,N/A,,Partly Cloudy,360,2013-02-16 23:35:00
6:55 PM,33.8,26.6,75,29.79,5.0,North,10.4,-,N/A,,Clear,10,2013-02-16 23:55:00
7:15 PM,33.8,26.6,75,29.78,7.0,NNE,13.8,-,N/A,,Clear,20,2013-02-17 00:15:00
7:55 PM,32.0,26.6,80,29.77,5.0,North,10.4,-,N/A,,Partly Cloudy,10,2013-02-17 00:55:00
8:15 PM,30.2,26.6,86,29.76,5.0,North,10.4,-,N/A,,Clear,10,2013-02-17 01:15:00
8:35 PM,30.2,24.8,80,29.76,10.0,North,8.1,-,N/A,,Clear,10,2013-02-17 01:35:00
8:55 PM,32.0,24.8,75,29.76,10.0,NNE,8.1,-,N/A,,Scattered Clouds,20,2013-02-17 01:55:00
9:15 PM,32.0,23.0,69,29.75,10.0,North,8.1,-,N/A,,Overcast,10,2013-02-17 02:15:00
9:35 PM,32.0,19.4,60,29.74,9.0,North,17.3,20.7,N/A,,Overcast,360,2013-02-17 02:35:00
9:55 PM,30.2,17.6,60,29.73,10.0,North,12.7,21.9,N/A,,Overcast,350,2013-02-17 02:55:00
10:15 PM,30.2,17.6,60,29.72,10.0,North,12.7,-,N/A,,Overcast,10,2013-02-17 03:15:00
10:35 PM,30.2,17.6,60,29.71,10.0,North,13.8,21.9,N/A,,Overcast,10,2013-02-17 03:35:00
10:55 PM,30.2,17.6,60,29.69,10.0,North,13.8,17.3,N/A,,Overcast,360,2013-02-17 03:55:00
11:15 PM,30.2,17.6,60,29.68,10.0,North,16.1,23.0,N/A,,Overcast,350,2013-02-17 04:15:00
11:35 PM,30.2,17.6,60,29.66,10.0,North,17.3,20.7,N/A,,Overcast,360,2013-02-17 04:35:00
11:55 PM,28.4,15.8,59,29.65,10.0,North,15.0,21.9,N/A,,Overcast,360,2013-02-17 04:55:00